Burrows, Indiana
Current Conditions -  °F | °C
As of 10:15 PM on Friday 21 Nov 2014 (Local Time) from KGGP Reporting Station
Broken Clouds Broken Clouds  
Wind Chill: 16°   Ceiling: 5000
Heat Index: 23°   Visibility: 10mi
Dew Point: 16°   Wind: 6mph
Humidity: 74%   Direction: 150°SSE
Pressure: 30.33"   Gusts: NA
Location:  40.68°N, 86.51°W
Report Text: KGGP 220315Z AUTO 15005KT 10SM SCT048 BKN050 M05/M09 A3033 RMK AO2
Loading
Personal Weather Stations






























Interactive Weather Map New forecast layout! Learn more

10-Day Weather Forecast

Advertisements
Track Severe Weather on mobile